sensor_id;sensor_type;location;lat;lon;timestamp;P1;durP1;ratioP1;P2;durP2;ratioP2
14740;SDS011;7462;53.530;9.414;2022-12-29T00:00:13;8.60;;;7.90;;
14740;SDS011;7462;53.530;9.414;2022-12-29T00:02:42;8.87;;;8.07;;
14740;SDS011;7462;53.530;9.414;2022-12-29T00:05:11;9.90;;;8.90;;
14740;SDS011;7462;53.530;9.414;2022-12-29T00:07:39;9.17;;;8.47;;
14740;SDS011;7462;53.530;9.414;2022-12-29T00:10:07;9.53;;;8.60;;
14740;SDS011;7462;53.530;9.414;2022-12-29T00:12:35;9.60;;;8.80;;
14740;SDS011;7462;53.530;9.414;2022-12-29T00:15:21;9.77;;;8.97;;
14740;SDS011;7462;53.530;9.414;2022-12-29T00:18:04;10.37;;;9.47;;
14740;SDS011;7462;53.530;9.414;2022-12-29T00:20:34;10.40;;;9.50;;
14740;SDS011;7462;53.530;9.414;2022-12-29T00:23:20;10.40;;;9.50;;
14740;SDS011;7462;53.530;9.414;2022-12-29T00:26:09;10.30;;;9.37;;
14740;SDS011;7462;53.530;9.414;2022-12-29T00:28:58;10.40;;;9.03;;
14740;SDS011;7462;53.530;9.414;2022-12-29T00:31:44;10.90;;;9.90;;
14740;SDS011;7462;53.530;9.414;2022-12-29T00:34:29;10.37;;;9.43;;
14740;SDS011;7462;53.530;9.414;2022-12-29T00:37:16;10.00;;;9.10;;
14740;SDS011;7462;53.530;9.414;2022-12-29T00:40:05;10.67;;;9.67;;
14740;SDS011;7462;53.530;9.414;2022-12-29T00:42:56;10.87;;;9.83;;
14740;SDS011;7462;53.530;9.414;2022-12-29T00:45:42;10.47;;;9.50;;
14740;SDS011;7462;53.530;9.414;2022-12-29T00:48:10;10.67;;;9.77;;
14740;SDS011;7462;53.530;9.414;2022-12-29T00:50:39;10.27;;;9.27;;
14740;SDS011;7462;53.530;9.414;2022-12-29T00:53:07;10.50;;;9.47;;
14740;SDS011;7462;53.530;9.414;2022-12-29T00:55:36;9.97;;;9.03;;
14740;SDS011;7462;53.530;9.414;2022-12-29T00:58:04;10.70;;;9.70;;
14740;SDS011;7462;53.530;9.414;2022-12-29T01:00:32;10.23;;;9.30;;
14740;SDS011;7462;53.530;9.414;2022-12-29T01:03:00;10.10;;;9.20;;
14740;SDS011;7462;53.530;9.414;2022-12-29T01:05:29;10.30;;;9.23;;
14740;SDS011;7462;53.530;9.414;2022-12-29T01:07:57;10.00;;;9.07;;
14740;SDS011;7462;53.530;9.414;2022-12-29T01:10:26;10.00;;;9.07;;
14740;SDS011;7462;53.530;9.414;2022-12-29T01:12:53;10.80;;;9.80;;
14740;SDS011;7462;53.530;9.414;2022-12-29T01:15:21;10.10;;;9.10;;
14740;SDS011;7462;53.530;9.414;2022-12-29T01:17:49;10.40;;;9.40;;
14740;SDS011;7462;53.530;9.414;2022-12-29T01:20:17;9.83;;;8.93;;
14740;SDS011;7462;53.530;9.414;2022-12-29T01:22:45;11.00;;;9.90;;
14740;SDS011;7462;53.530;9.414;2022-12-29T01:25:14;10.63;;;9.60;;
14740;SDS011;7462;53.530;9.414;2022-12-29T01:27:44;10.40;;;9.33;;
14740;SDS011;7462;53.530;9.414;2022-12-29T01:30:12;10.17;;;9.37;;
14740;SDS011;7462;53.530;9.414;2022-12-29T01:32:41;11.53;;;10.43;;
14740;SDS011;7462;53.530;9.414;2022-12-29T01:35:09;10.87;;;9.87;;
14740;SDS011;7462;53.530;9.414;2022-12-29T01:37:37;11.37;;;10.37;;
14740;SDS011;7462;53.530;9.414;2022-12-29T01:40:05;12.10;;;10.40;;
14740;SDS011;7462;53.530;9.414;2022-12-29T01:42:34;12.23;;;11.03;;
14740;SDS011;7462;53.530;9.414;2022-12-29T01:45:04;12.13;;;11.03;;
14740;SDS011;7462;53.530;9.414;2022-12-29T01:47:38;12.43;;;11.33;;
14740;SDS011;7462;53.530;9.414;2022-12-29T01:50:09;12.37;;;11.27;;
14740;SDS011;7462;53.530;9.414;2022-12-29T01:52:41;12.60;;;11.40;;
14740;SDS011;7462;53.530;9.414;2022-12-29T01:55:15;13.67;;;12.37;;
14740;SDS011;7462;53.530;9.414;2022-12-29T01:57:45;13.27;;;12.07;;
14740;SDS011;7462;53.530;9.414;2022-12-29T02:00:20;13.33;;;12.13;;
14740;SDS011;7462;53.530;9.414;2022-12-29T02:02:50;13.57;;;12.37;;
14740;SDS011;7462;53.530;9.414;2022-12-29T02:05:21;13.50;;;12.27;;
14740;SDS011;7462;53.530;9.414;2022-12-29T02:07:54;14.13;;;12.83;;
14740;SDS011;7462;53.530;9.414;2022-12-29T02:10:23;13.43;;;12.23;;
14740;SDS011;7462;53.530;9.414;2022-12-29T02:12:54;13.77;;;12.47;;
14740;SDS011;7462;53.530;9.414;2022-12-29T02:15:26;13.80;;;12.50;;
14740;SDS011;7462;53.530;9.414;2022-12-29T02:18:08;13.60;;;12.30;;
14740;SDS011;7462;53.530;9.414;2022-12-29T02:21:01;13.67;;;12.47;;
14740;SDS011;7462;53.530;9.414;2022-12-29T02:24:00;13.10;;;11.90;;
14740;SDS011;7462;53.530;9.414;2022-12-29T02:26:56;12.60;;;11.50;;
14740;SDS011;7462;53.530;9.414;2022-12-29T02:32:37;12.87;;;11.77;;
14740;SDS011;7462;53.530;9.414;2022-12-29T02:35:13;13.07;;;11.77;;
14740;SDS011;7462;53.530;9.414;2022-12-29T02:37:56;13.03;;;11.83;;
14740;SDS011;7462;53.530;9.414;2022-12-29T02:40:33;12.47;;;11.37;;
14740;SDS011;7462;53.530;9.414;2022-12-29T02:43:08;13.17;;;12.00;;
14740;SDS011;7462;53.530;9.414;2022-12-29T02:45:47;12.43;;;11.37;;
14740;SDS011;7462;53.530;9.414;2022-12-29T02:48:24;12.47;;;11.20;;
14740;SDS011;7462;53.530;9.414;2022-12-29T02:50:57;12.07;;;10.97;;
14740;SDS011;7462;53.530;9.414;2022-12-29T02:53:29;12.40;;;11.30;;
14740;SDS011;7462;53.530;9.414;2022-12-29T02:56:18;12.83;;;11.53;;
14740;SDS011;7462;53.530;9.414;2022-12-29T02:58:46;12.47;;;11.13;;
14740;SDS011;7462;53.530;9.414;2022-12-29T03:01:27;12.17;;;11.17;;
14740;SDS011;7462;53.530;9.414;2022-12-29T03:04:16;12.00;;;10.90;;
14740;SDS011;7462;53.530;9.414;2022-12-29T03:07:00;11.80;;;10.73;;
14740;SDS011;7462;53.530;9.414;2022-12-29T03:09:40;11.57;;;10.57;;
14740;SDS011;7462;53.530;9.414;2022-12-29T03:12:21;11.23;;;10.30;;
14740;SDS011;7462;53.530;9.414;2022-12-29T03:15:13;10.83;;;9.93;;
14740;SDS011;7462;53.530;9.414;2022-12-29T03:18:08;11.27;;;10.17;;
14740;SDS011;7462;53.530;9.414;2022-12-29T03:20:46;10.60;;;9.60;;
14740;SDS011;7462;53.530;9.414;2022-12-29T03:23:21;11.00;;;10.10;;
14740;SDS011;7462;53.530;9.414;2022-12-29T03:25:54;11.27;;;10.27;;
14740;SDS011;7462;53.530;9.414;2022-12-29T03:28:25;10.90;;;9.90;;
14740;SDS011;7462;53.530;9.414;2022-12-29T03:30:57;10.00;;;9.20;;
14740;SDS011;7462;53.530;9.414;2022-12-29T03:33:27;10.70;;;9.73;;
14740;SDS011;7462;53.530;9.414;2022-12-29T03:36:02;10.10;;;9.27;;
14740;SDS011;7462;53.530;9.414;2022-12-29T03:38:33;9.97;;;9.17;;
14740;SDS011;7462;53.530;9.414;2022-12-29T03:41:07;10.43;;;9.63;;
14740;SDS011;7462;53.530;9.414;2022-12-29T03:43:39;9.67;;;8.87;;
14740;SDS011;7462;53.530;9.414;2022-12-29T03:46:07;9.47;;;8.67;;
14740;SDS011;7462;53.530;9.414;2022-12-29T03:48:37;10.10;;;9.30;;
14740;SDS011;7462;53.530;9.414;2022-12-29T03:51:06;9.90;;;9.00;;
14740;SDS011;7462;53.530;9.414;2022-12-29T03:53:35;9.57;;;8.87;;
14740;SDS011;7462;53.530;9.414;2022-12-29T03:56:03;9.43;;;8.73;;
14740;SDS011;7462;53.530;9.414;2022-12-29T03:58:32;9.60;;;8.80;;
14740;SDS011;7462;53.530;9.414;2022-12-29T04:01:06;9.97;;;8.63;;
14740;SDS011;7462;53.530;9.414;2022-12-29T04:03:36;9.47;;;8.70;;
14740;SDS011;7462;53.530;9.414;2022-12-29T04:06:07;8.63;;;7.93;;
14740;SDS011;7462;53.530;9.414;2022-12-29T04:08:48;8.53;;;7.83;;
14740;SDS011;7462;53.530;9.414;2022-12-29T04:11:17;8.37;;;7.73;;
14740;SDS011;7462;53.530;9.414;2022-12-29T04:13:45;7.53;;;6.93;;
14740;SDS011;7462;53.530;9.414;2022-12-29T04:16:17;7.27;;;6.77;;
14740;SDS011;7462;53.530;9.414;2022-12-29T04:18:46;7.57;;;6.97;;
14740;SDS011;7462;53.530;9.414;2022-12-29T04:21:16;7.03;;;6.47;;
14740;SDS011;7462;53.530;9.414;2022-12-29T04:23:44;6.23;;;5.73;;
14740;SDS011;7462;53.530;9.414;2022-12-29T04:26:13;5.93;;;5.43;;
14740;SDS011;7462;53.530;9.414;2022-12-29T04:29:08;6.00;;;5.50;;
14740;SDS011;7462;53.530;9.414;2022-12-29T04:31:47;5.95;;;5.55;;
14740;SDS011;7462;53.530;9.414;2022-12-29T04:34:16;5.27;;;4.90;;
14740;SDS011;7462;53.530;9.414;2022-12-29T04:36:47;4.87;;;4.57;;
14740;SDS011;7462;53.530;9.414;2022-12-29T04:39:16;5.37;;;4.97;;
14740;SDS011;7462;53.530;9.414;2022-12-29T04:41:44;4.47;;;4.10;;
14740;SDS011;7462;53.530;9.414;2022-12-29T04:44:16;4.70;;;4.40;;
14740;SDS011;7462;53.530;9.414;2022-12-29T04:47:04;4.93;;;4.53;;
14740;SDS011;7462;53.530;9.414;2022-12-29T04:50:01;4.87;;;4.57;;
14740;SDS011;7462;53.530;9.414;2022-12-29T04:52:40;4.47;;;4.17;;
14740;SDS011;7462;53.530;9.414;2022-12-29T04:55:10;4.27;;;3.97;;
14740;SDS011;7462;53.530;9.414;2022-12-29T04:57:39;4.63;;;4.23;;
14740;SDS011;7462;53.530;9.414;2022-12-29T05:00:10;4.13;;;3.83;;
14740;SDS011;7462;53.530;9.414;2022-12-29T05:02:39;4.47;;;4.07;;
14740;SDS011;7462;53.530;9.414;2022-12-29T05:05:08;4.60;;;4.20;;
14740;SDS011;7462;53.530;9.414;2022-12-29T05:07:42;4.63;;;4.23;;
14740;SDS011;7462;53.530;9.414;2022-12-29T05:10:10;4.37;;;4.07;;
14740;SDS011;7462;53.530;9.414;2022-12-29T05:12:39;4.53;;;4.13;;
14740;SDS011;7462;53.530;9.414;2022-12-29T05:15:08;4.77;;;4.37;;
14740;SDS011;7462;53.530;9.414;2022-12-29T05:17:37;5.20;;;4.70;;
14740;SDS011;7462;53.530;9.414;2022-12-29T05:20:07;4.33;;;4.03;;
14740;SDS011;7462;53.530;9.414;2022-12-29T05:22:36;5.10;;;4.70;;
14740;SDS011;7462;53.530;9.414;2022-12-29T05:25:07;5.90;;;5.40;;
14740;SDS011;7462;53.530;9.414;2022-12-29T05:27:48;5.40;;;5.00;;
14740;SDS011;7462;53.530;9.414;2022-12-29T05:30:23;5.10;;;4.80;;
14740;SDS011;7462;53.530;9.414;2022-12-29T05:32:51;5.73;;;5.30;;
14740;SDS011;7462;53.530;9.414;2022-12-29T05:35:19;5.40;;;4.97;;
14740;SDS011;7462;53.530;9.414;2022-12-29T05:37:47;6.00;;;5.10;;
14740;SDS011;7462;53.530;9.414;2022-12-29T05:40:17;5.57;;;5.17;;
14740;SDS011;7462;53.530;9.414;2022-12-29T05:42:46;5.80;;;5.40;;
14740;SDS011;7462;53.530;9.414;2022-12-29T05:45:28;6.50;;;5.40;;
14740;SDS011;7462;53.530;9.414;2022-12-29T05:48:11;6.53;;;5.93;;
14740;SDS011;7462;53.530;9.414;2022-12-29T05:51:01;5.90;;;5.43;;
14740;SDS011;7462;53.530;9.414;2022-12-29T05:53:39;5.97;;;5.47;;
14740;SDS011;7462;53.530;9.414;2022-12-29T05:56:08;6.00;;;5.50;;
14740;SDS011;7462;53.530;9.414;2022-12-29T05:58:36;6.10;;;5.60;;
14740;SDS011;7462;53.530;9.414;2022-12-29T06:01:05;6.50;;;5.27;;
14740;SDS011;7462;53.530;9.414;2022-12-29T06:03:33;4.77;;;4.47;;
14740;SDS011;7462;53.530;9.414;2022-12-29T06:06:01;5.10;;;4.70;;
14740;SDS011;7462;53.530;9.414;2022-12-29T06:08:30;5.80;;;5.30;;
14740;SDS011;7462;53.530;9.414;2022-12-29T06:10:58;4.67;;;4.27;;
14740;SDS011;7462;53.530;9.414;2022-12-29T06:13:27;4.97;;;4.50;;
14740;SDS011;7462;53.530;9.414;2022-12-29T06:15:56;5.30;;;4.80;;
14740;SDS011;7462;53.530;9.414;2022-12-29T06:18:26;4.60;;;4.20;;
14740;SDS011;7462;53.530;9.414;2022-12-29T06:20:58;4.50;;;4.10;;
14740;SDS011;7462;53.530;9.414;2022-12-29T06:23:27;4.73;;;4.33;;
14740;SDS011;7462;53.530;9.414;2022-12-29T06:25:55;4.40;;;4.00;;
14740;SDS011;7462;53.530;9.414;2022-12-29T06:28:24;4.27;;;3.87;;
14740;SDS011;7462;53.530;9.414;2022-12-29T06:30:53;4.20;;;3.80;;
14740;SDS011;7462;53.530;9.414;2022-12-29T06:33:21;4.13;;;3.73;;
14740;SDS011;7462;53.530;9.414;2022-12-29T06:35:49;4.53;;;4.10;;
14740;SDS011;7462;53.530;9.414;2022-12-29T06:38:17;4.40;;;3.97;;
14740;SDS011;7462;53.530;9.414;2022-12-29T06:40:45;4.50;;;4.10;;
14740;SDS011;7462;53.530;9.414;2022-12-29T06:43:19;4.03;;;3.23;;
14740;SDS011;7462;53.530;9.414;2022-12-29T06:46:20;4.10;;;3.50;;
14740;SDS011;7462;53.530;9.414;2022-12-29T06:48:49;3.17;;;2.90;;
14740;SDS011;7462;53.530;9.414;2022-12-29T06:51:17;2.90;;;2.50;;
14740;SDS011;7462;53.530;9.414;2022-12-29T06:53:45;2.47;;;2.27;;
14740;SDS011;7462;53.530;9.414;2022-12-29T06:56:13;3.33;;;2.20;;
14740;SDS011;7462;53.530;9.414;2022-12-29T06:58:41;2.77;;;2.10;;
14740;SDS011;7462;53.530;9.414;2022-12-29T07:01:09;2.70;;;2.50;;
14740;SDS011;7462;53.530;9.414;2022-12-29T07:03:38;4.10;;;2.80;;
14740;SDS011;7462;53.530;9.414;2022-12-29T07:06:08;5.23;;;2.63;;
14740;SDS011;7462;53.530;9.414;2022-12-29T07:08:36;2.50;;;2.30;;
14740;SDS011;7462;53.530;9.414;2022-12-29T07:11:05;4.13;;;2.53;;
14740;SDS011;7462;53.530;9.414;2022-12-29T07:13:33;3.40;;;3.00;;
14740;SDS011;7462;53.530;9.414;2022-12-29T07:16:04;4.73;;;2.80;;
14740;SDS011;7462;53.530;9.414;2022-12-29T07:18:33;4.00;;;2.73;;
14740;SDS011;7462;53.530;9.414;2022-12-29T07:21:02;2.73;;;2.43;;
14740;SDS011;7462;53.530;9.414;2022-12-29T07:23:31;2.73;;;2.47;;
14740;SDS011;7462;53.530;9.414;2022-12-29T07:26:00;3.07;;;2.50;;
14740;SDS011;7462;53.530;9.414;2022-12-29T07:28:28;4.80;;;2.60;;
14740;SDS011;7462;53.530;9.414;2022-12-29T07:30:56;4.60;;;2.87;;
14740;SDS011;7462;53.530;9.414;2022-12-29T07:33:24;2.73;;;2.40;;
14740;SDS011;7462;53.530;9.414;2022-12-29T07:35:53;4.50;;;2.47;;
14740;SDS011;7462;53.530;9.414;2022-12-29T07:38:22;3.77;;;2.53;;
14740;SDS011;7462;53.530;9.414;2022-12-29T07:40:50;2.90;;;2.13;;
14740;SDS011;7462;53.530;9.414;2022-12-29T07:43:18;2.27;;;2.07;;
14740;SDS011;7462;53.530;9.414;2022-12-29T07:46:03;3.90;;;2.23;;
14740;SDS011;7462;53.530;9.414;2022-12-29T07:48:32;2.83;;;2.00;;
14740;SDS011;7462;53.530;9.414;2022-12-29T07:51:02;6.63;;;2.57;;
14740;SDS011;7462;53.530;9.414;2022-12-29T07:53:31;4.20;;;2.50;;
14740;SDS011;7462;53.530;9.414;2022-12-29T07:55:59;3.67;;;2.47;;
14740;SDS011;7462;53.530;9.414;2022-12-29T07:58:27;3.57;;;2.40;;
14740;SDS011;7462;53.530;9.414;2022-12-29T08:00:55;4.73;;;2.70;;
14740;SDS011;7462;53.530;9.414;2022-12-29T08:03:24;3.67;;;2.70;;
14740;SDS011;7462;53.530;9.414;2022-12-29T08:05:52;4.60;;;2.67;;
14740;SDS011;7462;53.530;9.414;2022-12-29T08:08:20;2.63;;;2.37;;
14740;SDS011;7462;53.530;9.414;2022-12-29T08:10:49;2.87;;;2.10;;
14740;SDS011;7462;53.530;9.414;2022-12-29T08:13:18;3.03;;;2.20;;
14740;SDS011;7462;53.530;9.414;2022-12-29T08:15:45;3.07;;;2.10;;
14740;SDS011;7462;53.530;9.414;2022-12-29T08:18:14;3.27;;;2.00;;
14740;SDS011;7462;53.530;9.414;2022-12-29T08:20:42;2.97;;;1.93;;
14740;SDS011;7462;53.530;9.414;2022-12-29T08:23:10;4.27;;;1.73;;
14740;SDS011;7462;53.530;9.414;2022-12-29T08:25:38;3.07;;;1.87;;
14740;SDS011;7462;53.530;9.414;2022-12-29T08:28:07;3.77;;;1.53;;
14740;SDS011;7462;53.530;9.414;2022-12-29T08:30:35;4.47;;;1.60;;
14740;SDS011;7462;53.530;9.414;2022-12-29T08:33:03;2.83;;;1.90;;
14740;SDS011;7462;53.530;9.414;2022-12-29T08:35:31;2.13;;;1.70;;
14740;SDS011;7462;53.530;9.414;2022-12-29T08:38:00;2.70;;;1.80;;
14740;SDS011;7462;53.530;9.414;2022-12-29T08:40:28;2.70;;;1.70;;
14740;SDS011;7462;53.530;9.414;2022-12-29T08:42:56;2.40;;;1.80;;
14740;SDS011;7462;53.530;9.414;2022-12-29T08:45:25;3.60;;;1.60;;
14740;SDS011;7462;53.530;9.414;2022-12-29T08:47:53;3.13;;;1.80;;
14740;SDS011;7462;53.530;9.414;2022-12-29T08:50:21;3.30;;;2.20;;
14740;SDS011;7462;53.530;9.414;2022-12-29T08:52:49;3.37;;;2.00;;
14740;SDS011;7462;53.530;9.414;2022-12-29T08:55:17;3.60;;;2.00;;
14740;SDS011;7462;53.530;9.414;2022-12-29T08:57:46;2.17;;;1.50;;
14740;SDS011;7462;53.530;9.414;2022-12-29T09:00:17;3.47;;;1.50;;
14740;SDS011;7462;53.530;9.414;2022-12-29T09:02:48;6.03;;;1.77;;
14740;SDS011;7462;53.530;9.414;2022-12-29T09:05:16;4.70;;;1.40;;
14740;SDS011;7462;53.530;9.414;2022-12-29T09:07:44;3.57;;;1.40;;
14740;SDS011;7462;53.530;9.414;2022-12-29T09:10:13;2.93;;;1.40;;
14740;SDS011;7462;53.530;9.414;2022-12-29T09:12:41;2.93;;;1.50;;
14740;SDS011;7462;53.530;9.414;2022-12-29T09:15:09;3.07;;;1.30;;
14740;SDS011;7462;53.530;9.414;2022-12-29T09:17:38;4.07;;;1.40;;
14740;SDS011;7462;53.530;9.414;2022-12-29T09:20:11;4.93;;;1.70;;
14740;SDS011;7462;53.530;9.414;2022-12-29T09:22:41;4.40;;;1.60;;
14740;SDS011;7462;53.530;9.414;2022-12-29T09:25:09;4.43;;;1.20;;
14740;SDS011;7462;53.530;9.414;2022-12-29T09:27:38;3.53;;;1.27;;
14740;SDS011;7462;53.530;9.414;2022-12-29T09:30:07;5.10;;;1.53;;
14740;SDS011;7462;53.530;9.414;2022-12-29T09:32:37;8.57;;;1.90;;
14740;SDS011;7462;53.530;9.414;2022-12-29T09:35:11;4.63;;;1.63;;
14740;SDS011;7462;53.530;9.414;2022-12-29T09:37:39;4.60;;;1.70;;
14740;SDS011;7462;53.530;9.414;2022-12-29T09:40:09;5.40;;;1.83;;
14740;SDS011;7462;53.530;9.414;2022-12-29T09:43:06;5.30;;;1.97;;
14740;SDS011;7462;53.530;9.414;2022-12-29T09:46:03;6.90;;;1.67;;
14740;SDS011;7462;53.530;9.414;2022-12-29T09:48:41;8.00;;;2.30;;
14740;SDS011;7462;53.530;9.414;2022-12-29T09:51:17;4.23;;;1.90;;
14740;SDS011;7462;53.530;9.414;2022-12-29T09:53:50;5.67;;;1.80;;
14740;SDS011;7462;53.530;9.414;2022-12-29T09:56:23;6.33;;;2.13;;
14740;SDS011;7462;53.530;9.414;2022-12-29T09:58:54;3.40;;;2.10;;
14740;SDS011;7462;53.530;9.414;2022-12-29T10:01:28;4.67;;;1.80;;
14740;SDS011;7462;53.530;9.414;2022-12-29T10:03:59;6.83;;;1.73;;
14740;SDS011;7462;53.530;9.414;2022-12-29T10:06:34;7.37;;;1.87;;
14740;SDS011;7462;53.530;9.414;2022-12-29T10:09:29;4.87;;;1.97;;
14740;SDS011;7462;53.530;9.414;2022-12-29T10:12:03;8.67;;;2.27;;
14740;SDS011;7462;53.530;9.414;2022-12-29T10:14:47;7.37;;;1.67;;
14740;SDS011;7462;53.530;9.414;2022-12-29T10:17:26;3.83;;;1.73;;
14740;SDS011;7462;53.530;9.414;2022-12-29T10:20:17;5.67;;;1.60;;
14740;SDS011;7462;53.530;9.414;2022-12-29T10:23:06;5.13;;;1.47;;
14740;SDS011;7462;53.530;9.414;2022-12-29T10:25:50;3.47;;;1.40;;
14740;SDS011;7462;53.530;9.414;2022-12-29T10:28:22;6.93;;;1.47;;
14740;SDS011;7462;53.530;9.414;2022-12-29T10:30:52;5.33;;;1.70;;
14740;SDS011;7462;53.530;9.414;2022-12-29T10:33:22;9.27;;;2.07;;
14740;SDS011;7462;53.530;9.414;2022-12-29T10:35:53;9.07;;;1.50;;
14740;SDS011;7462;53.530;9.414;2022-12-29T10:38:25;9.07;;;2.13;;
14740;SDS011;7462;53.530;9.414;2022-12-29T10:40:57;5.70;;;1.60;;
14740;SDS011;7462;53.530;9.414;2022-12-29T10:43:28;3.33;;;1.57;;
14740;SDS011;7462;53.530;9.414;2022-12-29T10:45:59;5.97;;;1.50;;
14740;SDS011;7462;53.530;9.414;2022-12-29T10:48:31;6.27;;;1.63;;
14740;SDS011;7462;53.530;9.414;2022-12-29T10:51:01;6.63;;;1.80;;
14740;SDS011;7462;53.530;9.414;2022-12-29T10:53:35;4.40;;;1.80;;
14740;SDS011;7462;53.530;9.414;2022-12-29T10:56:10;3.47;;;1.50;;
14740;SDS011;7462;53.530;9.414;2022-12-29T10:58:48;7.87;;;1.87;;
14740;SDS011;7462;53.530;9.414;2022-12-29T11:01:17;4.47;;;1.30;;
14740;SDS011;7462;53.530;9.414;2022-12-29T11:03:58;3.83;;;1.30;;
14740;SDS011;7462;53.530;9.414;2022-12-29T11:06:31;7.10;;;1.50;;
14740;SDS011;7462;53.530;9.414;2022-12-29T11:09:02;5.40;;;1.20;;
14740;SDS011;7462;53.530;9.414;2022-12-29T11:11:39;4.43;;;1.00;;
14740;SDS011;7462;53.530;9.414;2022-12-29T11:14:10;4.80;;;1.37;;
14740;SDS011;7462;53.530;9.414;2022-12-29T11:16:40;4.93;;;1.40;;
14740;SDS011;7462;53.530;9.414;2022-12-29T11:19:20;6.57;;;1.53;;
14740;SDS011;7462;53.530;9.414;2022-12-29T11:21:50;5.53;;;1.30;;
14740;SDS011;7462;53.530;9.414;2022-12-29T11:24:21;4.20;;;1.23;;
14740;SDS011;7462;53.530;9.414;2022-12-29T11:26:51;3.47;;;1.07;;
14740;SDS011;7462;53.530;9.414;2022-12-29T11:29:25;5.97;;;1.20;;
14740;SDS011;7462;53.530;9.414;2022-12-29T11:31:56;5.57;;;1.50;;
14740;SDS011;7462;53.530;9.414;2022-12-29T11:34:26;5.57;;;1.10;;
14740;SDS011;7462;53.530;9.414;2022-12-29T11:37:00;2.00;;;0.97;;
14740;SDS011;7462;53.530;9.414;2022-12-29T11:39:33;4.80;;;1.13;;
14740;SDS011;7462;53.530;9.414;2022-12-29T11:42:05;5.00;;;1.17;;
14740;SDS011;7462;53.530;9.414;2022-12-29T11:44:41;4.53;;;1.10;;
14740;SDS011;7462;53.530;9.414;2022-12-29T11:47:12;4.70;;;0.73;;
14740;SDS011;7462;53.530;9.414;2022-12-29T11:49:49;5.13;;;1.07;;
14740;SDS011;7462;53.530;9.414;2022-12-29T11:52:23;4.07;;;1.10;;
14740;SDS011;7462;53.530;9.414;2022-12-29T11:54:56;6.03;;;1.03;;
14740;SDS011;7462;53.530;9.414;2022-12-29T11:57:26;3.63;;;0.90;;
14740;SDS011;7462;53.530;9.414;2022-12-29T11:59:55;5.50;;;1.23;;
14740;SDS011;7462;53.530;9.414;2022-12-29T12:05:11;4.03;;;1.57;;
14740;SDS011;7462;53.530;9.414;2022-12-29T12:07:45;5.67;;;1.27;;
14740;SDS011;7462;53.530;9.414;2022-12-29T12:10:20;4.43;;;1.20;;
14740;SDS011;7462;53.530;9.414;2022-12-29T12:12:52;5.47;;;1.23;;
14740;SDS011;7462;53.530;9.414;2022-12-29T12:15:27;3.13;;;1.00;;
14740;SDS011;7462;53.530;9.414;2022-12-29T12:18:11;5.27;;;1.43;;
14740;SDS011;7462;53.530;9.414;2022-12-29T12:20:45;3.77;;;1.30;;
14740;SDS011;7462;53.530;9.414;2022-12-29T12:23:27;4.53;;;1.40;;
14740;SDS011;7462;53.530;9.414;2022-12-29T12:26:09;3.50;;;1.40;;
14740;SDS011;7462;53.530;9.414;2022-12-29T12:28:41;6.57;;;1.67;;
14740;SDS011;7462;53.530;9.414;2022-12-29T12:31:17;4.67;;;1.60;;
14740;SDS011;7462;53.530;9.414;2022-12-29T12:33:54;5.57;;;1.87;;
14740;SDS011;7462;53.530;9.414;2022-12-29T12:36:34;8.33;;;2.03;;
14740;SDS011;7462;53.530;9.414;2022-12-29T12:39:23;6.53;;;1.77;;
14740;SDS011;7462;53.530;9.414;2022-12-29T12:41:59;4.80;;;1.50;;
14740;SDS011;7462;53.530;9.414;2022-12-29T12:44:43;5.83;;;1.30;;
14740;SDS011;7462;53.530;9.414;2022-12-29T12:47:31;6.47;;;1.30;;
14740;SDS011;7462;53.530;9.414;2022-12-29T12:50:17;4.80;;;1.53;;
14740;SDS011;7462;53.530;9.414;2022-12-29T12:53:16;6.60;;;1.50;;
14740;SDS011;7462;53.530;9.414;2022-12-29T12:55:57;5.00;;;1.50;;
14740;SDS011;7462;53.530;9.414;2022-12-29T12:58:39;5.20;;;1.30;;
14740;SDS011;7462;53.530;9.414;2022-12-29T13:01:19;5.17;;;1.30;;
14740;SDS011;7462;53.530;9.414;2022-12-29T13:04:00;6.53;;;1.70;;
14740;SDS011;7462;53.530;9.414;2022-12-29T13:06:47;5.17;;;1.40;;
14740;SDS011;7462;53.530;9.414;2022-12-29T13:09:25;6.43;;;1.70;;
14740;SDS011;7462;53.530;9.414;2022-12-29T13:12:10;7.03;;;1.47;;
14740;SDS011;7462;53.530;9.414;2022-12-29T13:14:51;6.70;;;1.50;;
14740;SDS011;7462;53.530;9.414;2022-12-29T13:17:30;6.87;;;2.00;;
14740;SDS011;7462;53.530;9.414;2022-12-29T13:20:06;8.77;;;1.83;;
14740;SDS011;7462;53.530;9.414;2022-12-29T13:22:47;5.07;;;1.93;;
14740;SDS011;7462;53.530;9.414;2022-12-29T13:25:22;7.07;;;1.90;;
14740;SDS011;7462;53.530;9.414;2022-12-29T13:27:57;6.10;;;1.60;;
14740;SDS011;7462;53.530;9.414;2022-12-29T13:30:34;6.50;;;1.40;;
14740;SDS011;7462;53.530;9.414;2022-12-29T13:33:11;4.00;;;0.77;;
14740;SDS011;7462;53.530;9.414;2022-12-29T13:35:55;3.00;;;0.90;;
14740;SDS011;7462;53.530;9.414;2022-12-29T13:38:29;4.10;;;0.90;;
14740;SDS011;7462;53.530;9.414;2022-12-29T13:41:03;4.13;;;0.80;;
14740;SDS011;7462;53.530;9.414;2022-12-29T13:43:35;3.30;;;1.20;;
14740;SDS011;7462;53.530;9.414;2022-12-29T13:46:09;4.70;;;0.90;;
14740;SDS011;7462;53.530;9.414;2022-12-29T13:48:42;2.00;;;0.87;;
14740;SDS011;7462;53.530;9.414;2022-12-29T13:51:13;2.87;;;1.00;;
14740;SDS011;7462;53.530;9.414;2022-12-29T13:53:54;5.53;;;0.90;;
14740;SDS011;7462;53.530;9.414;2022-12-29T13:56:38;2.57;;;0.90;;
14740;SDS011;7462;53.530;9.414;2022-12-29T13:59:11;2.83;;;1.10;;
14740;SDS011;7462;53.530;9.414;2022-12-29T14:01:53;7.20;;;1.37;;
14740;SDS011;7462;53.530;9.414;2022-12-29T14:04:25;4.53;;;1.00;;
14740;SDS011;7462;53.530;9.414;2022-12-29T14:06:58;4.13;;;0.90;;
14740;SDS011;7462;53.530;9.414;2022-12-29T14:09:40;4.27;;;1.00;;
14740;SDS011;7462;53.530;9.414;2022-12-29T14:12:19;5.47;;;1.30;;
14740;SDS011;7462;53.530;9.414;2022-12-29T14:15:05;6.63;;;1.40;;
14740;SDS011;7462;53.530;9.414;2022-12-29T14:17:44;4.07;;;1.07;;
14740;SDS011;7462;53.530;9.414;2022-12-29T14:20:26;5.03;;;1.40;;
14740;SDS011;7462;53.530;9.414;2022-12-29T14:22:55;3.73;;;1.20;;
14740;SDS011;7462;53.530;9.414;2022-12-29T14:28:22;6.07;;;1.40;;
14740;SDS011;7462;53.530;9.414;2022-12-29T14:30:52;5.60;;;1.90;;
14740;SDS011;7462;53.530;9.414;2022-12-29T14:33:23;6.43;;;1.30;;
14740;SDS011;7462;53.530;9.414;2022-12-29T14:35:53;6.50;;;1.37;;
14740;SDS011;7462;53.530;9.414;2022-12-29T14:38:26;8.17;;;1.30;;
14740;SDS011;7462;53.530;9.414;2022-12-29T14:43:53;6.37;;;1.50;;
14740;SDS011;7462;53.530;9.414;2022-12-29T14:46:24;4.27;;;1.47;;
14740;SDS011;7462;53.530;9.414;2022-12-29T14:48:56;6.40;;;1.80;;
14740;SDS011;7462;53.530;9.414;2022-12-29T14:51:29;5.97;;;1.30;;
14740;SDS011;7462;53.530;9.414;2022-12-29T14:57:09;6.07;;;1.50;;
14740;SDS011;7462;53.530;9.414;2022-12-29T14:59:43;4.63;;;1.30;;
14740;SDS011;7462;53.530;9.414;2022-12-29T15:02:13;5.37;;;1.47;;
14740;SDS011;7462;53.530;9.414;2022-12-29T15:04:47;4.83;;;1.90;;
14740;SDS011;7462;53.530;9.414;2022-12-29T15:07:15;5.90;;;1.53;;
14740;SDS011;7462;53.530;9.414;2022-12-29T15:09:46;5.17;;;1.93;;
14740;SDS011;7462;53.530;9.414;2022-12-29T15:12:22;7.83;;;2.40;;
14740;SDS011;7462;53.530;9.414;2022-12-29T15:14:58;6.13;;;2.27;;
14740;SDS011;7462;53.530;9.414;2022-12-29T15:17:28;5.23;;;2.20;;
14740;SDS011;7462;53.530;9.414;2022-12-29T15:19:59;7.27;;;1.70;;
14740;SDS011;7462;53.530;9.414;2022-12-29T15:22:41;8.40;;;1.90;;
14740;SDS011;7462;53.530;9.414;2022-12-29T15:25:12;7.23;;;2.13;;
14740;SDS011;7462;53.530;9.414;2022-12-29T15:27:47;7.53;;;1.93;;
14740;SDS011;7462;53.530;9.414;2022-12-29T15:30:17;8.33;;;2.20;;
14740;SDS011;7462;53.530;9.414;2022-12-29T15:32:45;7.53;;;2.40;;
14740;SDS011;7462;53.530;9.414;2022-12-29T15:35:23;7.27;;;1.93;;
14740;SDS011;7462;53.530;9.414;2022-12-29T15:37:55;10.23;;;2.23;;
14740;SDS011;7462;53.530;9.414;2022-12-29T15:40:25;8.87;;;2.00;;
14740;SDS011;7462;53.530;9.414;2022-12-29T15:43:01;6.07;;;1.90;;
14740;SDS011;7462;53.530;9.414;2022-12-29T15:45:41;12.17;;;2.63;;
14740;SDS011;7462;53.530;9.414;2022-12-29T15:48:13;6.93;;;1.87;;
14740;SDS011;7462;53.530;9.414;2022-12-29T15:50:46;7.70;;;2.00;;